Bookmark and Share
Track history (hours):
 

21kousinmaru

Last reported at 2014-Apr-11 22:20 UTC. Time now 2014-Apr-19 12:03 UTC.
Position N 35°54' E 140°41'.

Length 68 m; draft 4.3 m.

Type: Tanker. MMSI: 431501835.

NotesDate/timePositionNaut miles runAvg speedWind from/ knotsBaromVisibWave heightAir tempDewpointWater temp
2014-Apr-11 22:20N 35°54' E 140°41'59 5.2
2014-Apr-11 11:07N 34°60' E 140°13'813.7
2014-Apr-11 10:33N 34°56' E 140°04'  
2014-Apr-06 08:23N 35°58' E 140°43'0 0.0
2014-Apr-05 21:19N 35°58' E 140°42'32 9.8
2014-Apr-05 18:03N 35°26' E 140°43'3612.8
2014-Apr-05 15:16N 34°60' E 140°13'1413.3
2014-Apr-05 14:13N 34°53' E 139°58'1111.5
2014-Apr-05 13:14N 34°56' E 139°44'711.0
2014-Apr-05 12:33N 35°03' E 139°44'10 9.6
2014-Apr-05 11:33N 35°13' E 139°46'1211.7
2014-Apr-05 10:33N 35°24' E 139°43'1212.2
2014-Apr-05 09:33N 35°31' E 139°55'6 6.0
2014-Apr-05 08:33N 35°31' E 140°03'0 0.0
2014-Apr-05 07:33N 35°31' E 140°03'0 0.0
2014-Apr-05 06:33N 35°31' E 140°03'3 3.5
2014-Apr-05 05:33N 35°30' E 139°58'3 3.3
2014-Apr-05 04:32N 35°28' E 139°55'0 0.0
2014-Apr-05 03:33N 35°28' E 139°55'0 0.0
2014-Apr-05 02:33N 35°28' E 139°55'0 0.0
2014-Apr-05 01:29N 35°28' E 139°55'0 0.0
2014-Apr-05 00:33N 35°28' E 139°55'0 0.0
2014-Apr-04 23:31N 35°28' E 139°55'0 0.0
2014-Apr-04 22:33N 35°28' E 139°55'0 0.0
2014-Apr-04 21:32N 35°28' E 139°55'0 0.0
2014-Apr-04 20:33N 35°28' E 139°55'0 0.0
2014-Apr-04 19:33N 35°28' E 139°55'0 0.0
2014-Apr-04 18:31N 35°28' E 139°55'6 6.2
2014-Apr-04 17:32N 35°26' E 139°48'1010.3
2014-Apr-04 16:33N 35°16' E 139°47'1111.5
2014-Apr-04 15:33N 35°04' E 139°44'1111.4
2014-Apr-04 14:33N 34°57' E 139°34'19 0.4
2014-Apr-02 17:20N 34°53' E 139°12'2212.6
2014-Apr-02 15:33N 35°04' E 139°35'1212.5
2014-Apr-02 14:33N 35°13' E 139°46'1212.5
2014-Apr-02 13:33N 35°25' E 139°43'1313.0
2014-Apr-02 12:33N 35°31' E 139°58'4 4.2
2014-Apr-02 11:33N 35°31' E 140°03'0 0.0
2014-Apr-02 10:33N 35°31' E 140°03'0 0.0
2014-Apr-02 09:33N 35°31' E 140°03'0 0.0
2014-Apr-02 08:33N 35°31' E 140°03'0 0.0
2014-Apr-02 07:33N 35°31' E 140°03'0 0.0
2014-Apr-02 06:33N 35°31' E 140°03'3 3.2
2014-Apr-02 05:34N 35°31' E 139°59'4 3.6
2014-Apr-02 04:32N 35°29' E 139°55'0 0.0
2014-Apr-02 03:33N 35°29' E 139°55'0 0.0
2014-Apr-02 02:33N 35°29' E 139°55'0 0.0
2014-Apr-02 01:33N 35°29' E 139°55'1110.8
2014-Apr-02 00:34N 35°21' E 139°45'1110.8
2014-Apr-01 23:34N 35°11' E 139°46'1211.9
2014-Apr-01 22:34N 35°01' E 139°39'  

Dump ship's entire track history

sailing weather and tide predictions

21kousinmaru — JD2168 — position and weather